Time;durP1;ratioP1;P1;durP2;ratioP2;P2;SDS_P1;SDS_P2;PMS_P1;PMS_P2;Temp;Humidity;BMP_temperature;BMP_pressure;BME280_temperature;BME280_humidity;BME280_pressure;Samples;Min_cycle;Max_cycle;Signal;HPM_P1;HPM_P2
2023/11/29 00:00:18;;;;;;;9.13;6.18;;;5.70;99.90;;;;;;5027590;28;20025;-77
2023/11/29 00:02:44;;;;;;;12.73;6.40;;;5.80;99.90;;;;;;5044094;28;20099;-76
2023/11/29 00:05:12;;;;;;;10.10;6.65;;;5.80;99.90;;;;;;5044062;28;20132;-76
2023/11/29 00:07:43;;;;;;;8.23;5.72;;;5.90;99.90;;;;;;5043939;28;20025;-76
2023/11/29 00:10:09;;;;;;;11.65;6.78;;;5.90;99.90;;;;;;5027823;28;20310;-76
2023/11/29 00:12:35;;;;;;;14.27;6.80;;;5.90;99.90;;;;;;5027703;28;20187;-76
2023/11/29 00:15:01;;;;;;;11.20;6.72;;;5.90;99.90;;;;;;5044917;28;20017;-76
2023/11/29 00:17:27;;;;;;;10.70;6.95;;;5.80;99.90;;;;;;5011010;28;20097;-76
2023/11/29 00:19:53;;;;;;;10.82;6.80;;;5.70;99.90;;;;;;5043672;28;20033;-76
2023/11/29 00:22:18;;;;;;;8.60;6.35;;;5.70;99.90;;;;;;5043838;28;20103;-76
2023/11/29 00:24:47;;;;;;;10.32;5.93;;;5.70;99.90;;;;;;5044912;28;20037;-75
2023/11/29 00:27:16;;;;;;;10.52;6.25;;;5.80;99.90;;;;;;5027854;28;20037;-75
2023/11/29 00:29:42;;;;;;;9.63;6.07;;;5.80;99.90;;;;;;5011042;28;20021;-75
2023/11/29 00:32:07;;;;;;;19.15;9.90;;;5.80;99.90;;;;;;5043852;28;20053;-76
2023/11/29 00:34:33;;;;;;;12.07;7.45;;;5.80;99.90;;;;;;5047446;28;20275;-75
2023/11/29 00:36:59;;;;;;;11.70;6.97;;;5.80;99.90;;;;;;5047762;28;20088;-75
2023/11/29 00:39:25;;;;;;;12.18;7.07;;;5.90;99.90;;;;;;5048441;28;20029;-76
2023/11/29 00:41:51;;;;;;;13.60;7.43;;;5.80;99.90;;;;;;5031186;28;20097;-76
2023/11/29 00:44:17;;;;;;;12.70;6.95;;;5.80;99.90;;;;;;5047438;28;20089;-76
2023/11/29 00:46:42;;;;;;;10.52;6.30;;;5.80;99.90;;;;;;5047465;28;20045;-76
2023/11/29 00:49:08;;;;;;;9.00;6.22;;;5.70;99.90;;;;;;5030743;28;20049;-76
2023/11/29 00:51:34;;;;;;;10.90;5.85;;;5.60;99.90;;;;;;5047144;28;20021;-76
2023/11/29 00:53:59;;;;;;;9.38;6.03;;;5.60;99.90;;;;;;5047294;28;20025;-76
2023/11/29 00:56:25;;;;;;;22.55;11.50;;;5.60;99.90;;;;;;5030852;28;20244;-76
2023/11/29 00:58:51;;;;;;;12.05;7.60;;;5.70;99.90;;;;;;5030814;28;20025;-77
2023/11/29 01:01:17;;;;;;;11.85;7.72;;;5.70;99.90;;;;;;5047031;28;20055;-76
2023/11/29 01:03:42;;;;;;;12.93;7.15;;;5.70;99.90;;;;;;5047168;28;20037;-76
2023/11/29 01:06:08;;;;;;;12.88;6.95;;;5.80;99.90;;;;;;5047058;28;20022;-76
2023/11/29 01:08:34;;;;;;;10.00;6.88;;;5.80;99.90;;;;;;5030839;28;20032;-76
2023/11/29 01:10:59;;;;;;;10.18;6.43;;;5.80;99.90;;;;;;5030616;28;20080;-76
2023/11/29 01:13:25;;;;;;;8.95;5.25;;;5.90;99.90;;;;;;5047001;28;20210;-76
2023/11/29 01:15:51;;;;;;;6.88;4.90;;;5.90;99.90;;;;;;5046991;28;20040;-76
2023/11/29 01:18:16;;;;;;;6.60;4.22;;;5.70;99.90;;;;;;5046969;28;20091;-76
2023/11/29 01:20:43;;;;;;;8.15;4.15;;;5.70;99.90;;;;;;5046817;28;20021;-76
2023/11/29 01:23:08;;;;;;;5.95;3.90;;;5.70;99.90;;;;;;5047125;28;20041;-76
2023/11/29 01:25:34;;;;;;;4.30;2.55;;;5.70;99.90;;;;;;5013861;28;20237;-76
2023/11/29 01:28:01;;;;;;;3.22;2.17;;;5.80;99.90;;;;;;5046765;28;20049;-76
2023/11/29 01:30:27;;;;;;;3.92;1.98;;;5.80;99.90;;;;;;5047644;28;20029;-76
2023/11/29 01:32:52;;;;;;;3.22;1.80;;;5.80;99.90;;;;;;5046732;28;20310;-76
2023/11/29 01:35:18;;;;;;;3.90;1.70;;;5.80;99.90;;;;;;5046591;28;20025;-75
2023/11/29 01:37:44;;;;;;;3.65;1.88;;;5.80;99.90;;;;;;5047472;28;20045;-75
2023/11/29 01:40:10;;;;;;;4.53;1.85;;;5.80;99.90;;;;;;5047450;28;20034;-75
2023/11/29 01:42:36;;;;;;;2.60;1.50;;;5.90;99.90;;;;;;5046440;28;20044;-76
2023/11/29 01:45:03;;;;;;;4.03;1.85;;;5.80;99.90;;;;;;5046320;28;20283;-76
2023/11/29 01:47:33;;;;;;;2.42;1.77;;;5.70;99.90;;;;;;5013752;28;20041;-76
2023/11/29 01:50:03;;;;;;;;;;;5.70;99.90;;;;;;5030541;28;20045;-76
2023/11/29 01:52:30;;;;;;;2.83;1.70;;;5.80;99.90;;;;;;5046330;28;19944;-76
2023/11/29 01:54:55;;;;;;;3.42;1.80;;;5.80;99.90;;;;;;5046218;28;20299;-76
2023/11/29 01:57:22;;;;;;;3.75;1.40;;;5.80;99.90;;;;;;5046038;28;20022;-76
2023/11/29 01:59:47;;;;;;;2.30;0.93;;;5.70;99.90;;;;;;5046116;28;20283;-76
2023/11/29 02:02:13;;;;;;;1.45;0.82;;;5.70;99.90;;;;;;5047059;28;20045;-76
2023/11/29 02:04:39;;;;;;;2.33;0.80;;;5.80;99.90;;;;;;5046115;28;20116;-76
2023/11/29 02:07:04;;;;;;;3.75;1.17;;;5.80;99.90;;;;;;5047045;28;20101;-76
2023/11/29 02:09:30;;;;;;;2.00;0.80;;;5.80;99.90;;;;;;5029470;28;20056;-76
2023/11/29 02:11:56;;;;;;;3.33;0.90;;;5.90;99.90;;;;;;5029328;28;20120;-76
2023/11/29 02:14:21;;;;;;;5.15;1.20;;;5.90;99.90;;;;;;5045735;28;20028;-76
2023/11/29 02:16:47;;;;;;;2.05;1.20;;;6.00;99.90;;;;;;5045954;28;20291;-77
2023/11/29 02:19:13;;;;;;;2.83;1.08;;;6.00;99.90;;;;;;5029372;28;20033;-76
2023/11/29 02:21:39;;;;;;;3.42;0.98;;;6.00;99.90;;;;;;5029140;28;20077;-77
2023/11/29 02:24:05;;;;;;;3.10;1.45;;;6.00;99.90;;;;;;5046564;28;20033;-76
2023/11/29 02:26:31;;;;;;;1.45;0.90;;;6.00;99.90;;;;;;5046604;28;20101;-76
2023/11/29 02:28:57;;;;;;;2.65;1.00;;;6.00;99.90;;;;;;5045712;28;20029;-76
2023/11/29 02:31:22;;;;;;;2.00;1.00;;;6.00;99.90;;;;;;5046244;28;20032;-76
2023/11/29 02:33:48;;;;;;;4.78;1.05;;;5.90;99.90;;;;;;5046383;28;20043;-76
2023/11/29 02:36:14;;;;;;;2.28;1.00;;;5.90;99.90;;;;;;5029092;28;20029;-77
2023/11/29 02:38:39;;;;;;;3.05;1.15;;;5.80;99.90;;;;;;5045481;28;20299;-76
2023/11/29 02:41:05;;;;;;;1.80;0.90;;;5.80;99.90;;;;;;5046416;28;20068;-76
2023/11/29 02:43:31;;;;;;;1.70;0.95;;;5.80;99.90;;;;;;5045091;28;20040;-76
2023/11/29 02:45:57;;;;;;;1.45;0.90;;;5.80;99.90;;;;;;5046156;28;20099;-76
2023/11/29 02:48:22;;;;;;;2.65;1.00;;;5.80;99.90;;;;;;5045284;28;20040;-76
2023/11/29 02:50:48;;;;;;;2.47;0.98;;;5.80;99.90;;;;;;5028902;28;20307;-76
2023/11/29 02:53:14;;;;;;;4.38;1.05;;;5.70;99.90;;;;;;5046436;28;20029;-76
2023/11/29 02:55:39;;;;;;;3.10;1.20;;;5.70;99.90;;;;;;5045844;28;20321;-76
2023/11/29 02:58:05;;;;;;;2.75;0.98;;;5.70;99.90;;;;;;5046148;28;20069;-76
2023/11/29 03:00:31;;;;;;;2.47;1.15;;;5.70;99.90;;;;;;5029384;28;20278;-76
2023/11/29 03:02:58;;;;;;;3.05;1.15;;;5.60;99.90;;;;;;5028636;28;20321;-76
2023/11/29 03:05:23;;;;;;;2.83;1.30;;;5.60;99.90;;;;;;5045318;28;20033;-75
2023/11/29 03:07:49;;;;;;;3.03;1.13;;;5.60;99.90;;;;;;5045280;28;20290;-76
2023/11/29 03:10:15;;;;;;;4.32;1.27;;;5.50;99.90;;;;;;5046275;28;20244;-75
2023/11/29 03:12:41;;;;;;;4.13;1.08;;;5.50;99.90;;;;;;5046117;28;20018;-75
2023/11/29 03:15:07;;;;;;;1.75;0.90;;;5.40;99.90;;;;;;5045057;28;20037;-76
2023/11/29 03:17:32;;;;;;;4.68;1.00;;;5.30;99.90;;;;;;5044969;28;20139;-75
2023/11/29 03:19:58;;;;;;;3.72;1.00;;;5.20;99.90;;;;;;5012034;28;20310;-76
2023/11/29 03:22:24;;;;;;;3.47;1.10;;;5.10;99.90;;;;;;5044991;28;20060;-75
2023/11/29 03:24:49;;;;;;;1.50;0.90;;;5.10;99.90;;;;;;5046694;28;20100;-76
2023/11/29 03:27:21;;;;;;;5.82;1.02;;;5.00;99.90;;;;;;5045628;28;20072;-75
2023/11/29 03:29:47;;;;;;;3.15;0.85;;;4.90;99.90;;;;;;5030061;28;20044;-75
2023/11/29 03:32:13;;;;;;;2.20;0.88;;;4.90;99.90;;;;;;5045476;28;20026;-75
2023/11/29 03:34:38;;;;;;;3.20;1.10;;;4.80;99.90;;;;;;5028828;28;20203;-75
2023/11/29 03:37:04;;;;;;;3.38;1.10;;;4.70;99.90;;;;;;5046284;28;20033;-75
2023/11/29 03:39:30;;;;;;;7.25;1.60;;;4.60;99.90;;;;;;5011651;28;20198;-75
2023/11/29 03:41:55;;;;;;;2.30;1.05;;;4.60;99.90;;;;;;5044475;28;20127;-75
2023/11/29 03:44:21;;;;;;;5.10;1.00;;;4.50;99.90;;;;;;5044559;28;20218;-75
2023/11/29 03:46:47;;;;;;;1.65;1.05;;;4.40;99.90;;;;;;5044307;28;20091;-74
2023/11/29 03:49:12;;;;;;;4.32;1.05;;;4.40;99.90;;;;;;5027693;28;20049;-74
2023/11/29 03:51:39;;;;;;;2.90;1.00;;;4.30;99.90;;;;;;5044210;28;20029;-74
2023/11/29 03:54:04;;;;;;;5.55;1.10;;;4.20;99.90;;;;;;5044179;28;20036;-75
2023/11/29 03:56:30;;;;;;;4.38;1.20;;;4.20;99.90;;;;;;5027764;28;20029;-75
2023/11/29 03:58:56;;;;;;;1.77;0.80;;;4.10;99.90;;;;;;5045169;28;20034;-75
2023/11/29 04:01:21;;;;;;;2.33;0.88;;;4.10;99.90;;;;;;5045191;28;20037;-75
2023/11/29 04:03:47;;;;;;;3.88;1.08;;;4.00;99.90;;;;;;5044965;28;20033;-75
2023/11/29 04:06:24;;;;;;;2.90;1.00;;;3.90;99.90;;;;;;5044015;28;20041;-75
2023/11/29 04:08:50;;;;;;;4.43;1.02;;;3.90;99.90;;;;;;5045472;28;20317;-75
2023/11/29 04:11:16;;;;;;;3.10;1.05;;;3.90;99.90;;;;;;5048214;28;20025;-76
2023/11/29 04:13:42;;;;;;;6.30;1.20;;;3.80;99.90;;;;;;5047937;28;20075;-75
2023/11/29 04:16:08;;;;;;;6.50;1.20;;;3.70;99.90;;;;;;5048964;28;20063;-75
2023/11/29 04:18:33;;;;;;;3.95;0.93;;;3.70;99.90;;;;;;5049006;28;20087;-75
2023/11/29 04:21:00;;;;;;;6.25;1.10;;;3.60;99.90;;;;;;5048986;28;20025;-74
2023/11/29 04:23:26;;;;;;;4.05;1.15;;;3.60;99.90;;;;;;5031445;28;20026;-75
2023/11/29 04:25:51;;;;;;;3.42;0.93;;;3.60;99.90;;;;;;5047806;28;20064;-76
2023/11/29 04:28:17;;;;;;;1.52;0.88;;;3.60;99.90;;;;;;5015082;28;20080;-77
2023/11/29 04:30:43;;;;;;;5.60;1.00;;;3.50;99.90;;;;;;5031430;28;20105;-77
2023/11/29 04:33:08;;;;;;;2.50;1.02;;;3.50;99.90;;;;;;5047825;28;20033;-76
2023/11/29 04:35:34;;;;;;;3.67;1.08;;;3.40;99.90;;;;;;5048586;28;20017;-76
2023/11/29 04:38:00;;;;;;;4.70;0.95;;;3.40;99.90;;;;;;5047676;28;20029;-76
2023/11/29 04:40:25;;;;;;;4.75;1.48;;;3.40;99.90;;;;;;5047729;28;20029;-77
2023/11/29 04:42:51;;;;;;;3.60;1.10;;;3.30;99.90;;;;;;5048685;28;20014;-76
2023/11/29 04:45:17;;;;;;;4.80;1.38;;;3.20;99.90;;;;;;5048691;28;20046;-75
2023/11/29 04:47:43;;;;;;;6.25;1.00;;;3.10;99.90;;;;;;5047374;28;20317;-75
2023/11/29 04:50:09;;;;;;;3.05;0.90;;;3.10;99.90;;;;;;5048281;28;20115;-77
2023/11/29 04:52:34;;;;;;;4.22;1.30;;;3.10;99.90;;;;;;5031019;28;20029;-75
2023/11/29 04:55:01;;;;;;;3.97;1.15;;;3.00;99.90;;;;;;5014596;28;20279;-74
2023/11/29 04:57:27;;;;;;;3.90;0.90;;;3.00;99.90;;;;;;5047296;28;20025;-76
2023/11/29 04:59:52;;;;;;;3.70;0.90;;;3.00;99.90;;;;;;5030943;28;20110;-77
2023/11/29 05:02:18;;;;;;;3.35;0.90;;;3.00;99.90;;;;;;5047555;28;20029;-75
2023/11/29 05:04:44;;;;;;;4.15;1.10;;;3.00;99.90;;;;;;5047050;28;20085;-75
2023/11/29 05:07:10;;;;;;;4.50;1.05;;;3.00;99.90;;;;;;5047265;28;20029;-75
2023/11/29 05:09:36;;;;;;;5.05;0.90;;;2.90;99.90;;;;;;5047964;28;20036;-75
2023/11/29 05:12:02;;;;;;;4.53;1.40;;;2.90;99.90;;;;;;5014190;28;20049;-74
2023/11/29 05:14:27;;;;;;;1.95;1.00;;;3.00;99.90;;;;;;5030569;28;20350;-75
2023/11/29 05:16:53;;;;;;;2.75;1.02;;;2.90;99.90;;;;;;5030504;28;20036;-75
2023/11/29 05:19:19;;;;;;;3.03;0.73;;;2.90;99.90;;;;;;5046444;28;20029;-75
2023/11/29 05:21:45;;;;;;;2.08;1.00;;;2.90;99.90;;;;;;5047729;28;20104;-75
2023/11/29 05:24:11;;;;;;;3.20;1.05;;;2.90;99.90;;;;;;5047723;28;20021;-75
2023/11/29 05:26:36;;;;;;;3.05;0.90;;;2.90;99.90;;;;;;5046789;28;20041;-76
2023/11/29 05:29:02;;;;;;;3.95;1.70;;;2.80;99.90;;;;;;5030346;28;20060;-75
2023/11/29 05:31:29;;;;;;;2.03;1.10;;;2.80;99.90;;;;;;5030244;28;20029;-75
2023/11/29 05:33:54;;;;;;;2.92;1.00;;;2.80;99.90;;;;;;5030346;28;20203;-75
2023/11/29 05:36:21;;;;;;;4.28;1.17;;;2.80;99.90;;;;;;5046577;28;20093;-75
2023/11/29 05:38:47;;;;;;;3.00;0.85;;;2.80;99.90;;;;;;5030128;28;20112;-75
2023/11/29 05:41:13;;;;;;;4.18;1.20;;;2.80;99.90;;;;;;5030154;28;20033;-75
2023/11/29 05:43:39;;;;;;;2.53;1.20;;;2.70;99.90;;;;;;5046428;28;20067;-75
2023/11/29 05:46:05;;;;;;;6.53;1.13;;;2.70;99.90;;;;;;5046281;28;20041;-75
2023/11/29 05:48:32;;;;;;;4.63;1.90;;;2.80;99.90;;;;;;5030023;28;20080;-75
2023/11/29 05:50:58;;;;;;;3.53;1.17;;;2.80;99.90;;;;;;5046139;28;20057;-75
2023/11/29 05:53:23;;;;;;;3.67;1.17;;;2.90;99.90;;;;;;5047117;28;20295;-75
2023/11/29 05:55:49;;;;;;;2.85;1.27;;;2.80;99.90;;;;;;5046241;28;20021;-75
2023/11/29 05:58:15;;;;;;;1.92;1.02;;;2.80;99.90;;;;;;5046154;28;20037;-75
2023/11/29 06:00:40;;;;;;;6.03;1.20;;;2.90;99.90;;;;;;5046246;28;20098;-75
2023/11/29 06:03:06;;;;;;;4.32;1.38;;;2.90;99.90;;;;;;5046888;28;20179;-75
2023/11/29 06:05:32;;;;;;;2.88;1.40;;;2.90;99.90;;;;;;5045833;28;20033;-75
2023/11/29 06:07:58;;;;;;;2.47;0.98;;;2.90;99.90;;;;;;5029591;28;20179;-75
2023/11/29 06:10:23;;;;;;;2.38;1.15;;;2.90;99.90;;;;;;5029487;28;20203;-75
2023/11/29 06:12:49;;;;;;;3.13;1.45;;;2.90;99.90;;;;;;5045755;28;20033;-75
2023/11/29 06:15:15;;;;;;;2.88;1.10;;;2.90;99.90;;;;;;5046995;28;20022;-75
2023/11/29 06:17:40;;;;;;;3.78;1.27;;;2.80;99.90;;;;;;5045690;28;20182;-75
2023/11/29 06:20:11;;;;;;;2.55;1.20;;;2.80;99.90;;;;;;5045755;28;20045;-75
2023/11/29 06:22:37;;;;;;;3.33;1.00;;;2.80;99.90;;;;;;5045818;28;20079;-75
2023/11/29 06:25:04;;;;;;;3.33;1.10;;;2.90;99.90;;;;;;5012897;28;20037;-75
2023/11/29 06:27:30;;;;;;;2.80;1.00;;;2.90;99.90;;;;;;5045433;28;20040;-75
2023/11/29 06:29:57;;;;;;;3.42;1.02;;;3.00;99.90;;;;;;5045553;28;20183;-75
2023/11/29 06:32:22;;;;;;;2.83;1.17;;;3.10;99.90;;;;;;5028126;28;20033;-75
2023/11/29 06:34:55;;;;;;;3.05;1.30;;;3.10;99.90;;;;;;5046520;28;20092;-75
2023/11/29 06:37:21;;;;;;;4.57;1.33;;;3.10;99.90;;;;;;5046489;28;20025;-75
2023/11/29 06:39:47;;;;;;;5.47;2.03;;;3.10;99.90;;;;;;5028860;28;20188;-75
2023/11/29 06:42:13;;;;;;;4.20;2.20;;;3.10;99.90;;;;;;5046154;28;20064;-75
2023/11/29 06:44:39;;;;;;;3.92;1.20;;;3.20;99.90;;;;;;5045113;28;20067;-75
2023/11/29 06:47:05;;;;;;;3.95;1.33;;;3.20;99.90;;;;;;5028699;28;20029;-75
2023/11/29 06:49:30;;;;;;;5.63;1.98;;;3.20;99.90;;;;;;5044969;28;20081;-75
2023/11/29 06:51:56;;;;;;;4.55;1.70;;;3.20;99.90;;;;;;5045060;28;20037;-75
2023/11/29 06:54:23;;;;;;;6.47;1.63;;;3.30;99.90;;;;;;5045126;28;20032;-75
2023/11/29 06:56:49;;;;;;;6.00;1.70;;;3.20;99.90;;;;;;5044932;28;20295;-76
2023/11/29 06:59:15;;;;;;;3.45;1.50;;;3.30;99.90;;;;;;5045032;28;20036;-75
2023/11/29 07:01:41;;;;;;;3.80;1.60;;;3.20;99.90;;;;;;5028346;28;20096;-75
2023/11/29 07:04:06;;;;;;;5.22;1.70;;;3.20;99.90;;;;;;5045759;28;20033;-75
2023/11/29 07:06:32;;;;;;;5.40;1.23;;;3.20;99.90;;;;;;5044567;28;20109;-74
2023/11/29 07:08:58;;;;;;;5.00;1.80;;;3.20;99.90;;;;;;5044837;28;20084;-76
2023/11/29 07:11:24;;;;;;;5.72;2.50;;;3.20;99.90;;;;;;5044682;28;20044;-76
2023/11/29 07:13:50;;;;;;;3.75;2.10;;;3.20;99.90;;;;;;5045547;28;20236;-74
2023/11/29 07:16:16;;;;;;;4.20;1.20;;;3.20;99.90;;;;;;5044514;28;20036;-75
2023/11/29 07:18:42;;;;;;;3.88;1.65;;;3.20;99.90;;;;;;5044640;28;20199;-74
2023/11/29 07:21:08;;;;;;;2.38;1.50;;;3.20;99.90;;;;;;5044595;28;20067;-76
2023/11/29 07:23:34;;;;;;;4.70;1.33;;;3.20;99.90;;;;;;5044434;28;20286;-74
2023/11/29 07:25:59;;;;;;;11.35;5.28;;;3.10;99.90;;;;;;5027914;28;20044;-74
2023/11/29 07:28:26;;;;;;;9.50;3.92;;;3.10;99.90;;;;;;5044572;28;20029;-76
2023/11/29 07:30:51;;;;;;;9.13;4.75;;;3.00;99.90;;;;;;5044363;28;20025;-76
2023/11/29 07:33:17;;;;;;;6.10;2.95;;;3.10;99.90;;;;;;5027946;28;20051;-76
2023/11/29 07:35:44;;;;;;;8.35;4.38;;;3.10;99.90;;;;;;5044206;28;20022;-76
2023/11/29 07:38:09;;;;;;;7.95;6.25;;;3.10;99.90;;;;;;5045252;28;20021;-76
2023/11/29 07:40:35;;;;;;;4.93;2.00;;;3.10;99.90;;;;;;5027554;28;20032;-74
2023/11/29 07:43:01;;;;;;;3.90;2.13;;;3.00;99.90;;;;;;5027326;28;20025;-76
2023/11/29 07:45:26;;;;;;;4.63;2.47;;;3.00;99.90;;;;;;5043846;28;20056;-76
2023/11/29 07:47:52;;;;;;;4.75;1.63;;;3.00;99.90;;;;;;5011120;28;20030;-77
2023/11/29 07:50:19;;;;;;;6.15;2.03;;;3.00;99.90;;;;;;5044940;28;20041;-76
2023/11/29 07:52:44;;;;;;;4.20;1.80;;;2.90;99.90;;;;;;5045032;28;20033;-74
2023/11/29 07:55:11;;;;;;;6.50;3.30;;;2.90;99.90;;;;;;5044418;28;20036;-74
2023/11/29 07:57:36;;;;;;;4.10;1.42;;;2.90;99.90;;;;;;5044260;28;20061;-74
2023/11/29 08:00:04;;;;;;;4.00;1.67;;;2.90;99.90;;;;;;5044136;28;20329;-74
2023/11/29 08:02:29;;;;;;;4.28;1.77;;;2.90;99.90;;;;;;5045064;28;20083;-74
2023/11/29 08:04:55;;;;;;;3.45;1.75;;;2.90;99.90;;;;;;5011308;28;20037;-74
2023/11/29 08:07:21;;;;;;;3.90;3.00;;;2.80;99.90;;;;;;5027457;28;20204;-74
2023/11/29 08:09:49;;;;;;;4.10;1.80;;;2.80;99.90;;;;;;5044822;28;20290;-74
2023/11/29 08:12:16;;;;;;;4.95;1.75;;;2.70;99.90;;;;;;5028130;28;20037;-74
2023/11/29 08:14:41;;;;;;;6.15;2.00;;;2.70;99.90;;;;;;5043865;28;20248;-75
2023/11/29 08:17:07;;;;;;;4.72;2.10;;;2.80;99.90;;;;;;5027822;28;20037;-75
2023/11/29 08:19:33;;;;;;;5.07;1.92;;;2.80;99.90;;;;;;5044212;28;20026;-75
2023/11/29 08:22:01;;;;;;;5.05;2.22;;;2.80;99.90;;;;;;5027698;28;20096;-75
2023/11/29 08:24:27;;;;;;;3.67;1.85;;;2.80;99.90;;;;;;5043930;28;20144;-74
2023/11/29 08:26:52;;;;;;;9.02;4.75;;;2.70;99.90;;;;;;5027429;28;20295;-74
2023/11/29 08:29:18;;;;;;;14.20;8.52;;;2.70;99.90;;;;;;5027204;28;20031;-75
2023/11/29 08:31:44;;;;;;;13.45;9.27;;;2.70;99.90;;;;;;5043854;28;20025;-74
2023/11/29 08:34:09;;;;;;;10.48;7.13;;;2.60;99.90;;;;;;5043435;28;20038;-75
2023/11/29 08:36:35;;;;;;;7.05;3.35;;;2.60;99.90;;;;;;5044638;28;20033;-75
2023/11/29 08:39:01;;;;;;;5.13;3.40;;;2.60;99.90;;;;;;5043460;28;20210;-75
2023/11/29 08:41:26;;;;;;;4.03;2.35;;;2.60;99.90;;;;;;5026861;28;20037;-75
2023/11/29 08:43:52;;;;;;;5.75;2.30;;;2.60;99.90;;;;;;5026788;28;20057;-75
2023/11/29 08:46:18;;;;;;;6.50;3.63;;;2.60;99.90;;;;;;5027057;28;20193;-75
2023/11/29 08:48:44;;;;;;;7.43;3.50;;;2.60;99.90;;;;;;5026884;28;20030;-76
2023/11/29 08:51:09;;;;;;;6.00;3.78;;;2.60;99.90;;;;;;5043279;28;20037;-75
2023/11/29 08:53:35;;;;;;;7.28;4.43;;;2.60;99.90;;;;;;5043308;28;20018;-75
2023/11/29 08:56:01;;;;;;;5.97;3.60;;;2.60;99.90;;;;;;5029912;28;20033;-75
2023/11/29 08:58:27;;;;;;;8.63;4.22;;;2.70;99.90;;;;;;5030600;28;20210;-75
2023/11/29 09:00:53;;;;;;;10.45;3.70;;;2.80;99.90;;;;;;5046977;28;20032;-75
2023/11/29 09:03:20;;;;;;;6.10;3.97;;;2.90;99.90;;;;;;5046949;28;20061;-76
2023/11/29 09:05:46;;;;;;;5.90;2.95;;;3.00;99.90;;;;;;5047488;28;20092;-76
2023/11/29 09:08:12;;;;;;;6.93;3.35;;;3.00;99.90;;;;;;5030275;28;20048;-75
2023/11/29 09:10:38;;;;;;;4.75;2.45;;;3.10;99.90;;;;;;5047862;28;20139;-75
2023/11/29 09:13:06;;;;;;;6.28;2.50;;;3.20;99.90;;;;;;5046482;28;20026;-75
2023/11/29 09:15:33;;;;;;;9.15;4.45;;;3.40;99.90;;;;;;5046624;28;20064;-76
2023/11/29 09:18:00;;;;;;;13.48;6.90;;;3.50;99.90;;;;;;5013902;28;20042;-76
2023/11/29 09:20:26;;;;;;;23.08;13.23;;;3.70;99.90;;;;;;5046587;28;20022;-76
2023/11/29 09:22:51;;;;;;;14.15;8.02;;;3.90;99.90;;;;;;5046638;28;20175;-75
2023/11/29 09:25:17;;;;;;;18.02;13.10;;;4.30;99.90;;;;;;5046407;28;20045;-75
2023/11/29 09:27:43;;;;;;;27.75;16.98;;;4.50;99.90;;;;;;5047360;28;20037;-76
2023/11/29 09:30:10;;;;;;;25.08;16.67;;;4.40;99.90;;;;;;5046774;28;20279;-75
2023/11/29 09:32:35;;;;;;;18.50;10.15;;;4.30;99.90;;;;;;5029986;28;20025;-76
2023/11/29 09:35:04;;;;;;;9.55;5.68;;;4.20;99.90;;;;;;5047642;28;20040;-75
2023/11/29 09:37:30;;;;;;;8.18;4.88;;;4.30;99.90;;;;;;5046335;28;20029;-75
2023/11/29 09:39:56;;;;;;;10.13;6.25;;;4.20;99.90;;;;;;5046350;28;20029;-74
2023/11/29 09:42:22;;;;;;;8.45;4.90;;;4.20;99.90;;;;;;5029754;28;20115;-75
2023/11/29 09:44:48;;;;;;;9.63;4.85;;;4.30;99.90;;;;;;5013393;28;20031;-75
2023/11/29 09:47:13;;;;;;;11.05;5.00;;;4.40;99.90;;;;;;5046166;28;20097;-76
2023/11/29 09:49:39;;;;;;;10.60;5.72;;;4.50;99.90;;;;;;5045850;28;20048;-76
2023/11/29 09:52:06;;;;;;;14.70;5.65;;;4.60;99.90;;;;;;5047010;28;20184;-76
2023/11/29 09:54:31;;;;;;;7.72;3.38;;;4.60;99.90;;;;;;5046151;28;20034;-76
2023/11/29 09:56:57;;;;;;;8.70;3.50;;;4.60;99.90;;;;;;5045981;28;20037;-75
2023/11/29 09:59:23;;;;;;;8.05;5.13;;;4.70;99.90;;;;;;5046856;28;20053;-76
2023/11/29 10:01:49;;;;;;;8.85;5.40;;;4.70;99.90;;;;;;5046857;28;20029;-76
2023/11/29 10:04:15;;;;;;;10.88;4.00;;;4.70;99.90;;;;;;5045840;28;20061;-75
2023/11/29 10:06:40;;;;;;;5.93;3.70;;;4.70;99.90;;;;;;5045820;28;20025;-75
2023/11/29 10:09:13;;;;;;;7.57;3.78;;;4.70;99.90;;;;;;5029481;28;20029;-76
2023/11/29 10:11:40;;;;;;;12.98;4.78;;;4.70;99.90;;;;;;5030150;28;20057;-75
2023/11/29 10:14:05;;;;;;;6.07;3.08;;;4.70;99.90;;;;;;5029211;28;20056;-76
2023/11/29 10:16:34;;;;;;;4.18;2.40;;;4.80;99.90;;;;;;5045485;28;20195;-76
2023/11/29 10:19:04;;;;;;;5.55;2.60;;;4.80;99.90;;;;;;5045495;28;20033;-76
2023/11/29 10:21:30;;;;;;;5.03;2.88;;;4.90;99.90;;;;;;5029176;28;20033;-76
2023/11/29 10:23:56;;;;;;;9.02;2.40;;;4.90;99.90;;;;;;5045576;28;20041;-76
2023/11/29 10:26:22;;;;;;;8.20;4.85;;;5.00;99.90;;;;;;5045473;28;20037;-76
2023/11/29 10:28:48;;;;;;;4.20;2.53;;;5.00;99.90;;;;;;5012736;28;20063;-76
2023/11/29 10:31:14;;;;;;;317.40;154.68;;;5.10;99.90;;;;;;5029089;28;20025;-76
2023/11/29 10:33:40;;;;;;;12.15;7.30;;;5.00;99.90;;;;;;5045210;28;20021;-76
2023/11/29 10:36:06;;;;;;;8.48;4.60;;;5.10;99.90;;;;;;5028745;28;20036;-75
2023/11/29 10:38:37;;;;;;;14.40;6.50;;;5.20;99.90;;;;;;5045190;28;20043;-81
2023/11/29 10:41:03;;;;;;;259.70;107.03;;;5.20;99.90;;;;;;5029365;28;20021;-80
2023/11/29 10:43:38;;;;;;;248.60;93.78;;;5.30;99.90;;;;;;5028650;28;20037;-80
2023/11/29 10:50:24;;;;;;;58.45;26.13;;;5.80;99.90;;;;;;4979195;28;20322;-81
2023/11/29 10:52:49;;;;;;;40.58;18.20;;;6.10;99.90;;;;;;5045926;28;20096;-80
2023/11/29 10:55:16;;;;;;;29.00;13.23;;;6.10;99.90;;;;;;5046080;28;20022;-76
2023/11/29 10:57:45;;;;;;;27.58;12.18;;;6.10;99.90;;;;;;5028531;28;20029;-76
2023/11/29 11:00:15;;;;;;;23.40;10.70;;;6.10;99.90;;;;;;5012263;28;20125;-76
2023/11/29 11:02:48;;;;;;;21.17;9.17;;;6.10;99.90;;;;;;5044829;28;20199;-76
2023/11/29 11:05:17;;;;;;;23.30;9.75;;;6.00;99.90;;;;;;5044823;28;20322;-76
2023/11/29 11:07:46;;;;;;;21.77;8.38;;;6.00;99.90;;;;;;5028127;28;20029;-76
2023/11/29 11:10:17;;;;;;;14.85;6.57;;;6.10;99.90;;;;;;5044492;28;20044;-77
2023/11/29 11:12:43;;;;;;;12.75;6.13;;;6.30;99.90;;;;;;5028382;28;20101;-76
2023/11/29 11:15:14;;;;;;;14.63;5.50;;;6.50;99.90;;;;;;5045081;28;20021;-76
2023/11/29 11:17:42;;;;;;;12.57;6.35;;;6.80;99.90;;;;;;5027486;28;20314;-76
2023/11/29 11:20:09;;;;;;;15.52;7.78;;;6.80;99.90;;;;;;5044489;28;20035;-76
2023/11/29 11:22:41;;;;;;;18.35;8.20;;;6.90;99.90;;;;;;5045475;28;20030;-77
2023/11/29 11:25:13;;;;;;;8.30;3.42;;;6.90;99.90;;;;;;5044190;28;20092;-77
2023/11/29 11:27:40;;;;;;;3.80;1.80;;;6.90;99.90;;;;;;5044074;28;20033;-76
2023/11/29 11:30:17;;;;;;;2.92;1.70;;;6.80;99.90;;;;;;5045217;28;20096;-76
2023/11/29 11:32:45;;;;;;;4.97;2.30;;;6.90;99.90;;;;;;5044226;28;20187;-76
2023/11/29 11:35:17;;;;;;;12.13;3.20;;;6.90;99.90;;;;;;5045324;28;20273;-76
2023/11/29 11:37:56;;;;;;;4.22;1.70;;;6.90;99.90;;;;;;5044816;28;20037;-76
2023/11/29 11:40:29;;;;;;;2.95;1.40;;;7.00;99.90;;;;;;5028841;28;20052;-76
2023/11/29 11:42:56;;;;;;;6.60;2.55;;;6.90;99.90;;;;;;5027639;28;20116;-76
2023/11/29 11:45:22;;;;;;;3.30;1.50;;;7.00;99.90;;;;;;5027583;28;20078;-76
2023/11/29 11:47:48;;;;;;;2.15;1.17;;;7.00;99.90;;;;;;5027518;28;20218;-77
2023/11/29 11:50:14;;;;;;;4.72;1.75;;;7.00;99.90;;;;;;5044082;28;20303;-76
2023/11/29 11:52:40;;;;;;;2.65;1.60;;;7.00;99.90;;;;;;5027791;28;20029;-77
2023/11/29 11:55:07;;;;;;;5.18;1.30;;;7.00;99.90;;;;;;5027485;28;20290;-77
2023/11/29 11:57:33;;;;;;;3.03;1.42;;;7.00;99.90;;;;;;5011129;28;20096;-77
2023/11/29 11:59:59;;;;;;;1.73;1.10;;;7.00;99.90;;;;;;5043624;28;20306;-75
2023/11/29 12:02:25;;;;;;;3.88;1.52;;;7.00;99.90;;;;;;5027430;28;20033;-76
2023/11/29 12:04:51;;;;;;;5.20;1.35;;;7.10;99.90;;;;;;5043973;28;20041;-76
2023/11/29 12:07:19;;;;;;;3.92;1.77;;;7.00;99.90;;;;;;5043697;28;20079;-76
2023/11/29 12:09:48;;;;;;;4.75;1.40;;;7.00;99.90;;;;;;5027738;28;20185;-76
2023/11/29 12:12:14;;;;;;;4.43;1.50;;;6.90;99.90;;;;;;5043663;28;20040;-76
2023/11/29 12:14:47;;;;;;;6.03;1.60;;;6.90;99.90;;;;;;5027183;28;20041;-76
2023/11/29 12:17:13;;;;;;;4.45;1.23;;;6.80;99.90;;;;;;5027177;28;20022;-76
2023/11/29 12:19:42;;;;;;;3.50;1.38;;;6.80;99.90;;;;;;5026750;28;20049;-75
2023/11/29 12:22:08;;;;;;;3.13;1.38;;;6.80;99.90;;;;;;5026989;28;20071;-78
2023/11/29 12:24:40;;;;;;;6.13;2.00;;;6.80;99.90;;;;;;5043625;28;20037;-78
2023/11/29 12:27:09;;;;;;;4.72;1.40;;;6.90;99.90;;;;;;5044545;28;20033;-77
2023/11/29 12:29:41;;;;;;;3.25;1.25;;;6.80;99.90;;;;;;5028384;28;20071;-76
2023/11/29 12:32:07;;;;;;;2.67;1.30;;;6.80;99.90;;;;;;5047223;28;20054;-76
2023/11/29 12:34:35;;;;;;;2.90;1.27;;;6.80;99.90;;;;;;5048165;28;20041;-76
2023/11/29 12:37:01;;;;;;;2.35;1.65;;;6.70;99.90;;;;;;5047035;28;20037;-75
2023/11/29 12:39:30;;;;;;;5.75;2.97;;;6.70;99.90;;;;;;5030488;28;20029;-75
2023/11/29 12:41:56;;;;;;;4.82;1.85;;;6.60;99.90;;;;;;5048586;28;20091;-75
2023/11/29 12:44:23;;;;;;;3.38;1.63;;;6.70;99.90;;;;;;5048489;28;20164;-76
2023/11/29 12:46:49;;;;;;;2.15;1.20;;;6.70;99.90;;;;;;5047980;28;20021;-76
2023/11/29 12:49:16;;;;;;;6.35;1.73;;;6.70;99.90;;;;;;5030475;28;20048;-76
2023/11/29 12:51:42;;;;;;;3.75;1.60;;;6.70;99.90;;;;;;5047924;28;20061;-76
2023/11/29 12:54:08;;;;;;;2.40;1.20;;;6.70;99.90;;;;;;5047519;28;20017;-75